Time;durP1;ratioP1;P1;durP2;ratioP2;P2;SDS_P1;SDS_P2;PMS_P1;PMS_P2;Temp;Humidity;BMP_temperature;BMP_pressure;BME280_temperature;BME280_humidity;BME280_pressure;Samples;Min_cycle;Max_cycle;Signal;HPM_P1;HPM_P2
2024/03/08 00:00:12;;;;;;;10.38;7.20;;;;;;;18.44;40.02;101658.66;5001436;28;20034;-67
2024/03/08 00:02:38;;;;;;;11.52;7.28;;;;;;;18.43;39.83;101657.78;5001764;28;20033;-69
2024/03/08 00:05:11;;;;;;;10.30;7.13;;;;;;;18.47;39.82;101663.72;5002628;28;20100;-67
2024/03/08 00:07:41;;;;;;;11.13;7.00;;;;;;;18.49;39.81;101659.19;5016792;28;20069;-66
2024/03/08 00:10:11;;;;;;;10.07;7.43;;;;;;;18.54;39.61;101669.41;5015067;28;20034;-67
2024/03/08 00:12:43;;;;;;;10.57;6.88;;;;;;;18.43;39.50;101655.16;5002603;28;20061;-67
2024/03/08 00:15:10;;;;;;;10.30;7.30;;;;;;;18.36;39.53;101639.84;5002951;28;20037;-68
2024/03/08 00:17:36;;;;;;;9.15;6.53;;;;;;;18.36;39.47;101645.13;5015464;28;20030;-68
2024/03/08 00:20:03;;;;;;;12.32;8.13;;;;;;;18.43;39.35;101657.78;5008633;28;20029;-68
2024/03/08 00:22:30;;;;;;;10.57;6.78;;;;;;;18.47;39.31;101666.38;5005722;28;20558;-68
2024/03/08 00:24:55;;;;;;;10.50;6.78;;;;;;;18.35;39.33;101646.94;5012538;28;20029;-69
2024/03/08 00:27:21;;;;;;;9.43;7.10;;;;;;;18.33;39.47;101648.00;5018150;28;20037;-67
2024/03/08 00:29:46;;;;;;;11.55;6.97;;;;;;;18.43;39.24;101656.97;5004178;28;20034;-69
2024/03/08 00:32:12;;;;;;;10.93;7.10;;;;;;;18.43;39.20;101657.78;5004887;28;20041;-67
2024/03/08 00:34:38;;;;;;;10.10;7.47;;;;;;;18.40;39.11;101665.09;5002158;28;20033;-67
2024/03/08 00:37:04;;;;;;;10.68;6.72;;;;;;;18.30;39.13;101647.25;5000497;28;20040;-68
2024/03/08 00:39:29;;;;;;;10.70;7.30;;;;;;;18.38;38.91;101653.81;5004504;28;20046;-68
2024/03/08 00:41:54;;;;;;;11.15;7.30;;;;;;;18.36;39.07;101642.50;5016197;28;20036;-68
2024/03/08 00:44:20;;;;;;;10.05;7.07;;;;;;;18.37;38.96;101647.66;5013643;28;20957;-69
2024/03/08 00:46:45;;;;;;;9.38;6.32;;;;;;;18.23;39.09;101622.25;5005757;28;20038;-67
2024/03/08 00:49:12;;;;;;;9.35;6.72;;;;;;;18.23;39.02;101624.03;5021672;28;20070;-68
2024/03/08 00:51:37;;;;;;;12.30;6.85;;;;;;;18.20;38.84;101622.47;5016771;28;20399;-67
2024/03/08 00:54:03;;;;;;;10.30;6.80;;;;;;;18.24;38.71;101620.44;5020634;28;20033;-67
2024/03/08 00:56:28;;;;;;;10.18;7.05;;;;;;;18.27;38.83;101630.78;5010695;28;20479;-67
2024/03/08 00:58:53;;;;;;;10.77;6.60;;;;;;;18.28;38.74;101635.97;5010372;28;20091;-68
2024/03/08 01:01:19;;;;;;;9.67;6.87;;;;;;;18.23;38.58;101616.13;5010829;28;20033;-68
2024/03/08 01:03:44;;;;;;;9.00;6.45;;;;;;;18.15;38.66;101602.63;5001354;28;20307;-68
2024/03/08 01:06:11;;;;;;;8.60;6.35;;;;;;;18.23;38.69;101616.13;5006950;28;20038;-69
2024/03/08 01:08:38;;;;;;;9.63;6.57;;;;;;;18.13;38.48;101603.59;5008642;28;20069;-69
2024/03/08 01:11:04;;;;;;;10.45;7.20;;;;;;;18.07;38.42;101592.59;5013668;28;20336;-69
2024/03/08 01:13:30;;;;;;;10.48;7.05;;;;;;;18.24;38.33;101621.28;5011248;28;20034;-68
2024/03/08 01:15:55;;;;;;;10.20;6.38;;;;;;;18.18;38.61;101608.50;5007673;28;20056;-67
2024/03/08 01:18:20;;;;;;;10.25;6.65;;;;;;;18.20;38.51;101611.03;5009959;28;20494;-69
2024/03/08 01:20:46;;;;;;;10.13;6.72;;;;;;;18.10;38.40;101590.59;5009707;28;20053;-68
2024/03/08 01:23:11;;;;;;;9.68;7.07;;;;;;;18.09;38.37;101593.34;5021058;28;20987;-68
2024/03/08 01:25:36;;;;;;;10.80;7.03;;;;;;;18.06;38.29;101589.13;5010326;28;20080;-68
2024/03/08 01:28:02;;;;;;;9.93;6.30;;;;;;;18.19;38.34;101607.56;5008094;28;20513;-68
2024/03/08 01:30:28;;;;;;;9.85;6.57;;;;;;;18.07;38.22;101585.53;5011088;28;20026;-69
2024/03/08 01:32:53;;;;;;;8.90;6.80;;;;;;;18.04;38.13;101587.53;5013067;28;20471;-68
2024/03/08 01:35:18;;;;;;;9.95;6.85;;;;;;;18.13;38.24;101594.81;5004020;28;20034;-68
2024/03/08 01:37:44;;;;;;;8.63;6.38;;;;;;;18.13;38.25;101598.31;5015236;28;20029;-68
2024/03/08 01:40:09;;;;;;;9.35;6.38;;;;;;;18.07;38.03;101588.19;5002125;28;20030;-69
2024/03/08 01:42:37;;;;;;;9.77;6.63;;;;;;;18.03;37.88;101577.94;5013638;28;20531;-68
2024/03/08 01:45:04;;;;;;;10.23;6.80;;;;;;;18.13;37.91;101594.81;5001008;28;20096;-68
2024/03/08 01:47:32;;;;;;;10.57;6.80;;;;;;;18.05;37.98;101582.16;4999651;28;20041;-68
2024/03/08 01:49:59;;;;;;;9.52;6.72;;;;;;;18.03;37.93;101577.94;5000479;28;20088;-68
2024/03/08 01:52:26;;;;;;;9.90;7.22;;;;;;;18.06;37.82;101570.66;5001021;28;20496;-69
2024/03/08 01:54:51;;;;;;;9.20;6.88;;;;;;;17.95;37.79;101560.00;5013770;28;20619;-68
2024/03/08 01:57:17;;;;;;;9.27;6.25;;;;;;;17.94;37.84;101553.91;5020082;28;20479;-68
2024/03/08 01:59:43;;;;;;;9.38;6.30;;;;;;;17.94;37.61;101553.91;5004621;28;20038;-67
2024/03/08 02:02:11;;;;;;;8.60;6.63;;;;;;;18.04;37.68;101569.06;5009020;28;20026;-68
2024/03/08 02:04:38;;;;;;;8.80;6.43;;;;;;;18.02;37.91;101569.16;5005742;28;21155;-69
2024/03/08 02:07:05;;;;;;;9.50;6.50;;;;;;;18.05;37.91;101576.03;5000275;28;20030;-67
2024/03/08 02:09:30;;;;;;;9.05;6.40;;;;;;;17.91;37.90;101550.59;5001737;28;20030;-68
2024/03/08 02:11:57;;;;;;;8.55;5.82;;;;;;;18.01;37.69;101564.88;5000420;28;20064;-68
2024/03/08 02:14:23;;;;;;;8.43;5.75;;;;;;;18.03;37.75;101567.41;5000011;28;20042;-69
2024/03/08 02:16:48;;;;;;;9.65;6.97;;;;;;;17.84;37.74;101528.22;5003678;28;20371;-69
2024/03/08 02:19:14;;;;;;;7.82;6.07;;;;;;;17.98;37.74;101551.88;5007072;28;20479;-68
2024/03/08 02:21:39;;;;;;;8.43;5.90;;;;;;;17.85;37.81;101537.81;5010785;28;20058;-69
2024/03/08 02:24:05;;;;;;;8.68;5.90;;;;;;;17.89;37.75;101537.53;4999737;28;20037;-68
2024/03/08 02:26:31;;;;;;;8.15;6.20;;;;;;;17.88;37.71;101529.72;5004986;28;20116;-67
2024/03/08 02:28:56;;;;;;;8.70;6.07;;;;;;;17.87;37.62;101525.38;5002773;28;20529;-68
2024/03/08 02:31:21;;;;;;;9.32;6.35;;;;;;;17.97;37.47;101546.72;5002682;28;20040;-68
2024/03/08 02:33:47;;;;;;;8.75;6.18;;;;;;;17.97;37.64;101542.28;5019208;28;20475;-69
2024/03/08 02:36:12;;;;;;;8.70;6.15;;;;;;;17.90;37.50;101538.41;5010155;28;20041;-68
2024/03/08 02:38:38;;;;;;;8.70;6.50;;;;;;;17.94;37.75;101531.94;5018227;28;20033;-68
2024/03/08 02:41:03;;;;;;;10.02;6.10;;;;;;;17.93;37.32;101528.47;5019091;28;20033;-68
2024/03/08 02:43:29;;;;;;;8.20;6.03;;;;;;;17.86;37.44;101516.63;5008973;28;20447;-68
2024/03/08 02:45:54;;;;;;;8.32;6.38;;;;;;;17.82;37.41;101509.06;5013914;28;20037;-68
2024/03/08 02:48:21;;;;;;;7.80;5.85;;;;;;;17.84;37.27;101509.78;5000324;28;20459;-68
2024/03/08 02:50:47;;;;;;;8.23;5.72;;;;;;;17.85;37.11;101512.31;4999113;28;20034;-68
2024/03/08 02:53:13;;;;;;;9.15;5.90;;;;;;;17.80;37.27;101503.88;5002202;28;20038;-69
2024/03/08 02:55:39;;;;;;;8.55;6.80;;;;;;;17.92;37.05;101521.50;5015014;28;20143;-68
2024/03/08 02:58:04;;;;;;;9.07;6.15;;;;;;;17.91;37.20;101517.19;5016463;28;20471;-68
2024/03/08 03:00:30;;;;;;;8.55;6.00;;;;;;;17.89;37.10;101508.53;5018381;28;20025;-68
2024/03/08 03:02:59;;;;;;;9.13;6.55;;;;;;;17.89;37.14;101510.31;5005701;28;21224;-68
2024/03/08 03:05:24;;;;;;;9.05;6.30;;;;;;;17.82;37.14;101487.97;5001758;28;20030;-68
2024/03/08 03:07:50;;;;;;;10.40;6.90;;;;;;;17.83;37.07;101489.63;4998829;28;20030;-69
2024/03/08 03:10:21;;;;;;;8.52;5.82;;;;;;;17.72;36.91;101475.41;5012505;28;20030;-68
2024/03/08 03:12:48;;;;;;;8.68;5.80;;;;;;;17.86;37.05;101494.69;5008627;28;20033;-68
2024/03/08 03:15:14;;;;;;;8.90;6.32;;;;;;;17.86;37.05;101495.53;5004722;28;20124;-68
2024/03/08 03:17:40;;;;;;;9.77;6.65;;;;;;;17.86;37.15;101495.53;5005380;28;20103;-68
2024/03/08 03:20:13;;;;;;;9.70;5.85;;;;;;;17.84;36.97;101496.59;5002943;28;20152;-68
2024/03/08 03:22:38;;;;;;;7.93;6.22;;;;;;;17.72;37.08;101471.91;5000550;28;20065;-68
2024/03/08 03:25:04;;;;;;;7.90;5.90;;;;;;;17.70;36.96;101466.75;5014026;28;20065;-68
2024/03/08 03:27:30;;;;;;;9.07;6.22;;;;;;;17.79;36.95;101481.09;5018925;28;20029;-67
2024/03/08 03:29:57;;;;;;;8.60;6.13;;;;;;;17.82;36.93;101482.69;5017009;28;20545;-69
2024/03/08 03:32:23;;;;;;;8.88;6.10;;;;;;;17.73;37.22;101471.81;5013580;28;20037;-68
2024/03/08 03:34:48;;;;;;;9.80;6.18;;;;;;;17.71;36.85;101462.34;5018422;28;20100;-68
2024/03/08 03:37:14;;;;;;;8.27;5.88;;;;;;;17.72;36.67;101461.38;5000215;28;20884;-68
2024/03/08 03:39:48;;;;;;;7.30;5.38;;;;;;;17.80;36.83;101482.78;4997408;28;20030;-68
2024/03/08 03:42:15;;;;;;;8.27;6.03;;;;;;;17.70;36.65;101458.84;5001861;28;20033;-69
2024/03/08 03:44:40;;;;;;;9.38;6.38;;;;;;;17.64;36.63;101453.16;5001894;28;20034;-67
2024/03/08 03:47:06;;;;;;;9.18;6.53;;;;;;;17.75;36.60;101469.94;5003492;28;20037;-68
2024/03/08 03:49:33;;;;;;;8.55;6.22;;;;;;;17.66;36.71;101456.53;5015723;28;20479;-68
2024/03/08 03:51:58;;;;;;;7.28;5.40;;;;;;;17.63;36.81;101447.03;5016321;28;20072;-68
2024/03/08 03:54:23;;;;;;;8.20;6.20;;;;;;;17.66;36.56;101454.75;5001564;28;20149;-69
2024/03/08 03:56:52;;;;;;;8.38;6.13;;;;;;;17.71;36.58;101457.91;5015279;28;20045;-69
2024/03/08 03:59:18;;;;;;;8.43;6.55;;;;;;;17.63;36.72;101438.31;5018433;28;20030;-68
2024/03/08 04:01:43;;;;;;;8.60;6.05;;;;;;;17.71;36.55;101462.34;5015648;28;20056;-69
2024/03/08 04:04:09;;;;;;;8.30;5.85;;;;;;;17.58;36.34;101442.09;5002601;28;20069;-69
2024/03/08 04:06:34;;;;;;;7.65;5.78;;;;;;;17.61;36.54;101445.47;5014199;28;20036;-68
2024/03/08 04:08:59;;;;;;;7.63;5.95;;;;;;;17.61;36.49;101440.19;5014578;28;20037;-68
2024/03/08 04:11:24;;;;;;;9.05;6.45;;;;;;;17.68;36.39;101452.00;5020694;28;20037;-69
2024/03/08 04:13:50;;;;;;;8.30;6.35;;;;;;;17.70;36.48;101450.94;5021543;28;20551;-68
2024/03/08 04:16:15;;;;;;;8.20;6.07;;;;;;;17.58;36.50;101433.34;5021868;28;20079;-69
2024/03/08 04:18:41;;;;;;;8.32;6.20;;;;;;;17.58;36.40;101433.34;5020502;28;20127;-68
2024/03/08 04:21:09;;;;;;;8.07;5.75;;;;;;;17.70;36.37;101450.94;5021061;28;20041;-69
2024/03/08 04:23:37;;;;;;;9.00;5.70;;;;;;;17.62;36.26;101432.16;5022145;28;20040;-69
2024/03/08 04:26:04;;;;;;;8.10;5.80;;;;;;;17.55;36.48;101425.66;5022249;28;20052;-68
2024/03/08 04:28:29;;;;;;;8.65;6.28;;;;;;;17.67;36.30;101442.41;5009577;28;20049;-68
2024/03/08 04:30:55;;;;;;;9.55;6.32;;;;;;;17.65;36.49;101439.03;5001714;28;20030;-69
2024/03/08 04:33:21;;;;;;;8.20;5.78;;;;;;;17.65;36.31;101436.41;5002048;28;20049;-68
2024/03/08 04:35:47;;;;;;;8.88;5.78;;;;;;;17.64;36.15;101430.28;5010232;28;20041;-68
2024/03/08 04:38:12;;;;;;;9.05;5.95;;;;;;;17.64;36.30;101432.06;5009248;28;20034;-68
2024/03/08 04:40:37;;;;;;;8.98;6.53;;;;;;;17.58;36.36;101431.56;5007517;28;20026;-68
2024/03/08 04:43:03;;;;;;;9.80;6.18;;;;;;;17.61;36.17;101427.00;5009812;28;20049;-69
2024/03/08 04:45:29;;;;;;;8.40;5.95;;;;;;;17.58;36.06;101425.44;5009961;28;20128;-68
2024/03/08 04:47:54;;;;;;;8.00;6.00;;;;;;;17.51;36.32;101408.38;5004890;28;20082;-68
2024/03/08 04:50:19;;;;;;;9.32;5.80;;;;;;;17.50;35.92;101411.94;5001760;28;20289;-69
2024/03/08 04:52:44;;;;;;;7.60;5.50;;;;;;;17.50;36.17;101411.94;5021170;28;20136;-68
2024/03/08 04:55:10;;;;;;;9.05;6.13;;;;;;;17.47;36.19;101397.19;5017609;28;20029;-68
2024/03/08 04:57:35;;;;;;;8.02;6.10;;;;;;;17.59;36.28;101419.22;5018742;28;20072;-67
2024/03/08 05:00:10;;;;;;;7.60;5.88;;;;;;;17.48;35.99;101392.75;5013392;28;20132;-69
2024/03/08 05:02:36;;;;;;;8.18;5.78;;;;;;;17.57;36.02;101408.78;5003160;28;20113;-68
2024/03/08 05:05:02;;;;;;;7.95;5.63;;;;;;;17.55;35.93;101408.03;5011369;28;20029;-68
2024/03/08 05:07:27;;;;;;;8.55;5.97;;;;;;;17.50;35.92;101393.50;5014498;28;20033;-68
2024/03/08 05:09:52;;;;;;;8.27;6.10;;;;;;;17.49;36.14;101405.00;5020598;28;20037;-68
2024/03/08 05:12:18;;;;;;;9.00;5.95;;;;;;;17.48;35.95;101390.13;5004268;28;20036;-67
2024/03/08 05:14:46;;;;;;;8.18;5.70;;;;;;;17.44;36.00;101383.41;5006730;28;20041;-69
2024/03/08 05:17:12;;;;;;;8.13;6.45;;;;;;;17.46;35.87;101400.78;5003057;28;20029;-65
2024/03/08 05:19:37;;;;;;;8.23;6.22;;;;;;;17.50;36.11;101396.13;5001052;28;20699;-68
2024/03/08 05:22:03;;;;;;;8.55;5.90;;;;;;;17.48;35.95;101391.00;5000452;28;20817;-68
2024/03/08 05:24:29;;;;;;;7.07;5.78;;;;;;;17.52;35.88;101397.72;5000738;28;20036;-68
2024/03/08 05:26:55;;;;;;;7.30;5.70;;;;;;;17.48;35.93;101388.34;5000625;28;20033;-69
2024/03/08 05:29:20;;;;;;;8.60;6.15;;;;;;;17.50;35.97;101391.72;4999364;28;20407;-67
2024/03/08 05:31:52;;;;;;;9.05;5.75;;;;;;;17.49;35.58;101390.03;5002860;28;20033;-68
2024/03/08 05:34:19;;;;;;;7.97;6.05;;;;;;;17.51;35.98;101393.38;5020564;28;20403;-68
2024/03/08 05:36:46;;;;;;;8.25;6.10;;;;;;;17.51;36.14;101393.38;5020437;28;20048;-68
2024/03/08 05:39:14;;;;;;;7.53;6.00;;;;;;;17.42;35.72;101391.41;5011289;28;20030;-68
2024/03/08 05:41:40;;;;;;;8.68;6.40;;;;;;;17.47;36.05;101386.66;5017180;28;20060;-67
2024/03/08 05:44:06;;;;;;;7.65;6.13;;;;;;;17.40;35.71;101374.84;5019827;28;20875;-68
2024/03/08 05:46:31;;;;;;;7.53;5.90;;;;;;;17.33;35.90;101360.44;5008245;28;20051;-68
2024/03/08 05:48:58;;;;;;;8.77;6.43;;;;;;;17.46;35.89;101384.97;5010405;28;20044;-68
2024/03/08 05:51:25;;;;;;;8.00;5.82;;;;;;;17.40;36.37;101365.16;5002603;28;20026;-68
2024/03/08 05:53:53;;;;;;;8.05;6.13;;;;;;;17.43;37.08;101365.91;5007462;28;20037;-68
2024/03/08 05:56:18;;;;;;;6.50;5.10;;;;;;;17.54;36.97;101376.53;5016901;28;20026;-68
2024/03/08 05:58:44;;;;;;;7.00;5.10;;;;;;;17.47;37.38;101354.22;5016744;28;20060;-69
2024/03/08 06:01:12;;;;;;;6.97;4.60;;;;;;;17.48;37.21;101351.47;5009804;28;20459;-68
2024/03/08 06:03:44;;;;;;;6.75;4.40;;;;;;;17.64;37.23;101371.44;5002071;28;20075;-68
2024/03/08 06:06:11;;;;;;;6.57;4.45;;;;;;;17.66;37.20;101367.75;5000064;28;20040;-68
2024/03/08 06:08:37;;;;;;;5.93;4.10;;;;;;;17.70;37.26;101363.09;5012316;28;20041;-68
2024/03/08 06:11:02;;;;;;;6.22;4.63;;;;;;;17.72;36.96;101363.81;5011335;28;20435;-68
2024/03/08 06:13:27;;;;;;;6.43;4.38;;;;;;;17.67;37.01;101350.13;5019713;28;20025;-69
2024/03/08 06:15:53;;;;;;;7.07;4.63;;;;;;;17.76;36.89;101352.13;5005226;28;20472;-68
2024/03/08 06:18:18;;;;;;;6.82;4.70;;;;;;;17.76;37.12;101352.97;5011947;28;20037;-67
2024/03/08 06:20:43;;;;;;;7.00;4.43;;;;;;;17.76;36.85;101337.13;5012201;28;20033;-69
2024/03/08 06:23:09;;;;;;;7.40;5.10;;;;;;;17.84;36.78;101351.56;5000132;28;20124;-68
2024/03/08 06:25:34;;;;;;;6.47;4.65;;;;;;;17.88;36.73;101353.06;5011841;28;20176;-68
2024/03/08 06:28:00;;;;;;;6.70;4.47;;;;;;;17.90;36.79;101346.72;5018385;28;20549;-68
2024/03/08 06:30:25;;;;;;;6.57;4.70;;;;;;;17.92;36.72;101342.19;5014990;28;20045;-68
2024/03/08 06:32:51;;;;;;;6.70;4.47;;;;;;;17.79;36.78;101328.19;5012641;28;20487;-68
2024/03/08 06:35:16;;;;;;;6.70;4.57;;;;;;;17.93;36.77;101337.75;4999528;28;20045;-68
2024/03/08 06:37:44;;;;;;;6.15;4.40;;;;;;;17.94;36.66;101344.69;4999646;28;20265;-67
2024/03/08 06:40:13;;;;;;;6.97;4.35;;;;;;;17.98;36.63;101348.81;4999460;28;20037;-67
2024/03/08 06:42:39;;;;;;;7.28;4.30;;;;;;;17.87;36.59;101323.19;4998988;28;20040;-67
2024/03/08 06:45:04;;;;;;;5.95;4.35;;;;;;;18.02;36.56;101342.34;5015468;28;20033;-68
2024/03/08 06:47:30;;;;;;;6.18;4.45;;;;;;;17.88;36.69;101322.28;5014073;28;20072;-67
2024/03/08 06:49:56;;;;;;;7.65;4.38;;;;;;;18.03;36.48;101332.66;4998737;28;20819;-67
2024/03/08 06:52:22;;;;;;;8.05;4.63;;;;;;;17.92;36.29;101318.44;5009296;28;20104;-67
2024/03/08 06:54:47;;;;;;;7.50;4.88;;;;;;;17.96;36.51;101327.00;4999248;28;20060;-68
2024/03/08 06:57:13;;;;;;;6.63;4.28;;;;;;;17.95;36.09;101328.78;5016970;28;20037;-68
2024/03/08 06:59:39;;;;;;;6.53;4.57;;;;;;;17.98;36.27;101325.09;5011456;28;20040;-67
2024/03/08 07:02:04;;;;;;;6.50;4.70;;;;;;;18.05;36.46;101330.75;5003353;28;20048;-67
2024/03/08 07:04:31;;;;;;;5.95;4.15;;;;;;;18.10;36.51;101339.16;5009734;28;20108;-68
2024/03/08 07:06:57;;;;;;;7.85;4.40;;;;;;;17.99;36.46;101321.50;5008798;28;20083;-67
2024/03/08 07:09:23;;;;;;;6.57;4.38;;;;;;;17.99;36.22;101316.22;4999592;28;20029;-68
2024/03/08 07:11:54;;;;;;;6.40;4.88;;;;;;;18.11;36.54;101330.28;4999101;28;20044;-67
2024/03/08 07:14:22;;;;;;;6.15;4.38;;;;;;;18.10;36.56;101328.59;5018305;28;20041;-67
2024/03/08 07:16:49;;;;;;;6.75;4.47;;;;;;;18.11;36.50;101338.22;5018670;28;20032;-67
2024/03/08 07:19:15;;;;;;;6.72;5.32;;;;;;;18.08;36.47;101327.88;5017530;28;20040;-67
2024/03/08 07:21:41;;;;;;;7.43;4.18;;;;;;;18.11;36.75;101333.75;4999278;28;20041;-66
2024/03/08 07:24:27;;;;;;;6.28;4.30;;;;;;;18.00;36.56;101317.06;5009240;28;20034;-67
2024/03/08 07:26:54;;;;;;;6.75;4.40;;;;;;;18.03;36.53;101316.84;5009712;28;20034;-67
2024/03/08 07:29:19;;;;;;;6.43;4.38;;;;;;;18.11;36.34;101335.56;5015093;28;20029;-67
2024/03/08 07:31:50;;;;;;;6.93;4.72;;;;;;;17.99;36.44;101310.09;5007730;28;20025;-67
2024/03/08 07:34:16;;;;;;;6.93;4.43;;;;;;;18.02;36.19;101305.41;5007119;28;20112;-67
2024/03/08 07:36:42;;;;;;;6.20;4.45;;;;;;;18.06;36.27;101309.53;5007182;28;20040;-67
2024/03/08 07:39:11;;;;;;;6.30;4.43;;;;;;;18.08;36.21;101314.69;5009085;28;20036;-67
2024/03/08 07:41:37;;;;;;;7.70;5.15;;;;;;;18.11;36.16;101309.19;5011910;28;20055;-67
2024/03/08 07:44:03;;;;;;;7.30;4.93;;;;;;;18.06;35.90;101298.97;5004865;28;20458;-67
2024/03/08 07:46:29;;;;;;;7.35;4.95;;;;;;;18.14;36.33;101303.69;5018496;28;20045;-67
2024/03/08 07:48:54;;;;;;;8.48;4.80;;;;;;;18.03;36.19;101287.81;5017194;28;20096;-67
2024/03/08 07:51:20;;;;;;;7.07;4.80;;;;;;;18.12;36.30;101301.16;5011553;28;20025;-66
2024/03/08 07:53:45;;;;;;;6.05;4.45;;;;;;;18.03;36.42;101278.09;5007341;28;20034;-67
2024/03/08 07:56:13;;;;;;;7.32;4.85;;;;;;;18.16;36.65;101295.66;5008470;28;20946;-68
2024/03/08 07:58:40;;;;;;;9.10;5.28;;;;;;;18.17;36.53;101298.19;5009667;28;20045;-67
2024/03/08 08:01:05;;;;;;;7.03;4.93;;;;;;;18.05;36.47;101268.28;5013281;28;20039;-68
2024/03/08 08:03:31;;;;;;;8.27;4.90;;;;;;;18.19;36.69;101295.44;5008132;28;20038;-67
2024/03/08 08:05:56;;;;;;;6.50;4.53;;;;;;;18.10;36.83;101265.31;5013862;28;20490;-67
2024/03/08 08:08:21;;;;;;;6.68;4.72;;;;;;;18.19;36.99;101274.34;5020043;28;20105;-67
2024/03/08 08:10:47;;;;;;;7.20;4.70;;;;;;;18.16;36.90;101267.47;5005610;28;20033;-67
2024/03/08 08:13:12;;;;;;;6.88;4.57;;;;;;;18.12;37.04;101258.13;5011074;28;21119;-67
2024/03/08 08:15:38;;;;;;;6.00;4.45;;;;;;;18.14;37.32;101258.84;5020155;28;20410;-67
2024/03/08 08:18:05;;;;;;;8.65;4.90;;;;;;;18.13;37.09;101251.88;5005439;28;20029;-67
2024/03/08 08:20:31;;;;;;;8.38;4.60;;;;;;;18.11;37.18;101246.72;5002311;28;20033;-68
2024/03/08 08:22:56;;;;;;;6.22;4.60;;;;;;;18.14;37.08;101237.75;5002478;28;20037;-67
2024/03/08 08:25:24;;;;;;;7.60;4.82;;;;;;;18.25;37.12;101258.88;5009504;28;20041;-68
2024/03/08 08:27:49;;;;;;;6.72;4.60;;;;;;;18.17;37.02;101242.78;5001987;28;20084;-67
2024/03/08 08:30:15;;;;;;;6.55;4.85;;;;;;;18.27;37.49;101250.84;5014720;28;20399;-67
2024/03/08 08:32:42;;;;;;;6.45;4.78;;;;;;;18.27;37.52;101254.31;5022251;28;20033;-67
2024/03/08 08:35:12;;;;;;;6.20;4.53;;;;;;;18.31;37.65;101245.22;5011788;28;20092;-68
2024/03/08 08:37:38;;;;;;;7.07;4.57;;;;;;;18.27;37.86;101243.78;5022093;28;20021;-67
2024/03/08 08:40:09;;;;;;;7.90;4.63;;;;;;;18.31;38.05;101247.88;5015291;28;20104;-68
2024/03/08 08:42:34;;;;;;;6.32;4.57;;;;;;;18.22;38.01;101224.00;5002055;28;20072;-68
2024/03/08 08:45:04;;;;;;;6.82;4.60;;;;;;;18.26;37.79;101236.84;5011262;28;20508;-66
2024/03/08 08:47:29;;;;;;;5.85;4.50;;;;;;;18.27;38.00;101233.22;5009760;28;20399;-67
2024/03/08 08:49:54;;;;;;;7.43;4.50;;;;;;;18.28;37.91;101231.44;5001170;28;20061;-67
2024/03/08 08:52:20;;;;;;;6.57;4.20;;;;;;;18.27;38.19;101227.09;5002817;28;20061;-67
2024/03/08 08:54:45;;;;;;;8.05;4.72;;;;;;;18.21;38.07;101211.75;5001945;28;20492;-67
2024/03/08 08:57:11;;;;;;;6.50;4.47;;;;;;;18.36;38.14;101229.06;5000441;28;20034;-67
2024/03/08 08:59:38;;;;;;;8.38;5.05;;;;;;;18.38;38.17;101235.03;5002296;28;20034;-67
2024/03/08 09:02:04;;;;;;;7.13;4.55;;;;;;;18.35;38.08;101222.09;5000114;28;20450;-67
2024/03/08 09:04:30;;;;;;;7.32;4.45;;;;;;;18.40;37.98;101229.66;5003054;28;20871;-69
2024/03/08 09:06:56;;;;;;;6.35;4.78;;;;;;;18.35;37.86;101214.16;5026376;28;20038;-67
2024/03/08 09:09:22;;;;;;;7.28;5.15;;;;;;;18.34;38.00;101209.00;5011782;28;20495;-67
2024/03/08 09:11:47;;;;;;;7.57;4.60;;;;;;;18.41;37.70;101215.50;4999691;28;20040;-68
2024/03/08 09:14:12;;;;;;;6.20;4.47;;;;;;;18.33;38.05;101202.91;5005726;28;20034;-67
2024/03/08 09:16:37;;;;;;;7.10;4.97;;;;;;;18.37;37.66;101195.59;5019680;28;20442;-69
2024/03/08 09:19:03;;;;;;;7.57;4.93;;;;;;;18.42;37.93;101199.56;5015835;28;20037;-67
2024/03/08 09:21:28;;;;;;;7.93;4.80;;;;;;;18.42;37.90;101188.16;5010669;28;20041;-69
2024/03/08 09:23:53;;;;;;;7.72;4.60;;;;;;;18.28;37.98;101161.03;5006132;28;20033;-66
2024/03/08 09:26:19;;;;;;;7.45;4.53;;;;;;;18.37;37.97;101177.94;5015313;28;20889;-68
2024/03/08 09:28:45;;;;;;;6.85;4.68;;;;;;;18.39;37.81;101181.31;5011662;28;20025;-68
2024/03/08 09:31:11;;;;;;;6.82;4.47;;;;;;;18.38;37.65;101169.06;5015364;28;20128;-70
2024/03/08 09:33:36;;;;;;;8.05;5.05;;;;;;;18.41;37.73;101165.38;5008374;28;20091;-68
2024/03/08 09:36:03;;;;;;;7.47;4.97;;;;;;;18.38;37.86;101150.59;5008797;28;20045;-68
2024/03/08 09:38:29;;;;;;;7.22;5.10;;;;;;;18.41;37.87;101149.53;5003728;28;20092;-69
2024/03/08 09:40:56;;;;;;;7.50;5.03;;;;;;;18.41;37.72;101146.91;5010967;28;20026;-69
2024/03/08 09:43:24;;;;;;;6.82;4.40;;;;;;;18.43;37.87;101137.88;5010135;28;20065;-69
2024/03/08 09:45:51;;;;;;;6.68;4.40;;;;;;;18.38;38.25;101118.94;5007164;28;20029;-70
2024/03/08 09:48:18;;;;;;;6.53;4.55;;;;;;;18.53;38.27;101134.53;5013293;28;20399;-68
2024/03/08 09:50:44;;;;;;;8.60;4.93;;;;;;;18.44;38.30;101107.09;5012753;28;20067;-69
2024/03/08 09:53:11;;;;;;;6.53;4.55;;;;;;;18.44;38.34;101104.44;5005810;28;20041;-70
2024/03/08 09:55:39;;;;;;;7.20;4.78;;;;;;;18.44;38.40;101102.63;5011343;28;20037;-69
2024/03/08 10:00:57;;;;;;;7.45;5.50;;;;;;;18.52;37.52;101103.81;4995979;28;20119;-71
2024/03/08 10:03:23;;;;;;;8.15;5.05;;;;;;;18.55;37.90;101111.50;5002849;28;20038;-71
2024/03/08 10:05:49;;;;;;;6.75;4.82;;;;;;;18.40;37.95;101085.34;5008667;28;20033;-70
2024/03/08 10:08:14;;;;;;;8.18;4.93;;;;;;;18.45;37.75;101085.84;5004785;28;20063;-69
2024/03/08 10:10:39;;;;;;;7.25;4.95;;;;;;;18.51;37.95;101089.78;5013901;28;20480;-71
2024/03/08 10:13:06;;;;;;;6.82;5.00;;;;;;;18.41;37.97;101073.00;5005408;28;20095;-69
2024/03/08 10:15:33;;;;;;;6.63;5.20;;;;;;;18.45;37.40;101077.06;5007360;28;21086;-68
2024/03/08 10:17:58;;;;;;;8.75;4.82;;;;;;;18.42;37.56;101075.53;5002039;28;20112;-69
2024/03/08 10:20:24;;;;;;;7.25;4.63;;;;;;;18.36;37.58;101061.97;4997101;28;20034;-68
2024/03/08 10:22:49;;;;;;;8.77;4.68;;;;;;;18.41;38.20;101065.94;5006165;28;20041;-66
2024/03/08 10:25:15;;;;;;;7.60;4.70;;;;;;;18.38;38.28;101063.53;5015261;28;20037;-68
2024/03/08 10:27:43;;;;;;;8.85;4.47;;;;;;;18.48;38.07;101079.47;4999674;28;20034;-70
2024/03/08 10:30:13;;;;;;;6.40;4.05;;;;;;;18.49;38.30;101068.78;4998643;28;20431;-67
2024/03/08 10:32:41;;;;;;;6.25;4.40;;;;;;;18.44;38.32;101057.78;5011185;28;20947;-69
2024/03/08 10:35:09;;;;;;;8.32;4.72;;;;;;;18.46;38.17;101052.38;5003618;28;20414;-67
2024/03/08 10:37:49;;;;;;;7.68;5.05;;;;;;;18.35;37.70;101041.84;5017223;28;20029;-69
2024/03/08 10:40:19;;;;;;;9.60;6.15;;;;;;;18.46;36.13;101047.94;5001980;28;20030;-66
2024/03/08 10:43:00;;;;;;;8.60;5.22;;;;;;;18.33;36.75;101025.28;4998845;28;20934;-65
2024/03/08 10:45:35;;;;;;;7.20;4.90;;;;;;;18.45;37.37;101037.50;5000280;28;20111;-65
2024/03/08 10:48:23;;;;;;;6.60;4.65;;;;;;;18.45;37.81;101033.06;4997349;28;20054;-67
2024/03/08 10:50:52;;;;;;;7.63;5.00;;;;;;;18.43;37.64;101029.69;4998573;28;20038;-68
2024/03/08 10:53:21;;;;;;;8.32;4.88;;;;;;;18.25;38.03;100997.69;5005328;28;20093;-69
2024/03/08 10:55:46;;;;;;;7.00;4.72;;;;;;;18.39;38.09;101014.22;5004075;28;20037;-67
2024/03/08 10:58:12;;;;;;;10.57;4.70;;;;;;;18.37;38.10;101009.06;4998708;28;20021;-66
2024/03/08 11:00:38;;;;;;;7.18;4.95;;;;;;;18.36;37.25;101007.41;5012658;28;20041;-67
2024/03/08 11:03:04;;;;;;;8.88;4.50;;;;;;;18.44;37.92;101015.53;5006836;28;20073;-67
2024/03/08 11:05:48;;;;;;;12.50;5.68;;;;;;;18.31;37.22;100984.03;5004716;28;20492;-68
2024/03/08 11:08:20;;;;;;;6.43;4.40;;;;;;;18.44;37.76;100999.72;5008971;28;20037;-69
2024/03/08 11:10:53;;;;;;;6.00;4.20;;;;;;;18.45;37.83;100998.75;4998437;28;20038;-70
2024/03/08 11:13:35;;;;;;;8.30;4.60;;;;;;;18.44;37.73;100991.78;5009621;28;20025;-68
2024/03/08 11:16:01;;;;;;;7.68;4.60;;;;;;;18.45;38.08;100987.34;5006533;28;20030;-71
2024/03/08 11:18:26;;;;;;;8.70;4.55;;;;;;;18.43;37.93;100979.56;5011200;28;20446;-71
2024/03/08 11:20:55;;;;;;;8.30;4.40;;;;;;;18.36;37.69;100966.97;5004050;28;20026;-70
2024/03/08 11:23:23;;;;;;;7.15;4.53;;;;;;;18.45;37.83;100977.66;5014308;28;20040;-71